createdAt,value
2017-09-22T00:00:07.286Z,86.70
2017-09-22T00:02:35.647Z,86.60
2017-09-22T00:05:03.968Z,86.50
2017-09-22T00:07:32.385Z,86.60
2017-09-22T00:10:00.723Z,86.50
2017-09-22T00:12:29.138Z,86.60
2017-09-22T00:14:57.475Z,86.40
2017-09-22T00:17:25.795Z,86.60
2017-09-22T00:19:54.138Z,86.80
2017-09-22T00:22:22.453Z,86.80
2017-09-22T00:24:50.807Z,86.70
2017-09-22T00:27:19.128Z,86.60
2017-09-22T00:29:47.441Z,86.60
2017-09-22T00:32:15.779Z,87.30
2017-09-22T00:34:44.084Z,86.60
2017-09-22T00:37:13.459Z,86.60
2017-09-22T00:39:41.779Z,86.60
2017-09-22T00:42:10.124Z,86.70
2017-09-22T00:44:38.471Z,86.60
2017-09-22T00:47:06.804Z,86.50
2017-09-22T00:49:35.149Z,87.20
2017-09-22T00:52:03.459Z,86.40
2017-09-22T00:54:31.792Z,87.20
2017-09-22T00:57:00.109Z,86.40
2017-09-22T00:59:28.444Z,86.60
2017-09-22T01:01:56.765Z,86.70
2017-09-22T01:04:25.123Z,86.90
2017-09-22T01:06:53.466Z,86.90
2017-09-22T01:09:21.777Z,87.00
2017-09-22T01:11:49.346Z,87.00
2017-09-22T01:14:17.655Z,87.20
2017-09-22T01:16:45.991Z,87.20
2017-09-22T01:19:14.304Z,87.20
2017-09-22T01:21:42.738Z,87.10
2017-09-22T01:24:11.047Z,87.00
2017-09-22T01:26:39.364Z,86.70
2017-09-22T01:29:07.698Z,86.70
2017-09-22T01:31:36.013Z,86.70
2017-09-22T01:34:04.352Z,86.70
2017-09-22T01:36:32.772Z,86.70
2017-09-22T01:39:01.079Z,86.60
2017-09-22T01:41:29.411Z,86.60
2017-09-22T01:43:57.732Z,86.70
2017-09-22T01:46:26.067Z,86.60
2017-09-22T01:48:54.455Z,86.80
2017-09-22T01:51:22.806Z,86.90
2017-09-22T01:53:50.347Z,86.80
2017-09-22T01:56:18.667Z,87.10
2017-09-22T01:58:47.067Z,87.20
2017-09-22T02:01:15.432Z,87.10
2017-09-22T02:03:43.766Z,87.10
2017-09-22T02:06:12.078Z,87.10
2017-09-22T02:08:40.407Z,87.00
2017-09-22T02:11:08.740Z,86.90
2017-09-22T02:13:37.087Z,87.70
2017-09-22T02:16:05.404Z,86.70
2017-09-22T02:18:33.715Z,86.70
2017-09-22T02:21:02.059Z,86.50
2017-09-22T02:23:30.380Z,86.60
2017-09-22T02:25:58.713Z,86.70
2017-09-22T02:28:27.023Z,86.60
2017-09-22T02:30:55.370Z,86.60
2017-09-22T02:33:23.688Z,86.80
2017-09-22T02:35:52.057Z,86.90
2017-09-22T02:38:20.370Z,87.00
2017-09-22T02:40:47.923Z,87.00
2017-09-22T02:43:16.260Z,87.10
2017-09-22T02:45:44.612Z,87.20
2017-09-22T02:48:12.947Z,87.20
2017-09-22T02:50:41.267Z,88.10
2017-09-22T02:53:09.609Z,87.10
2017-09-22T02:55:37.932Z,87.10
2017-09-22T02:58:06.291Z,87.10
2017-09-22T03:00:34.618Z,87.20
2017-09-22T03:03:02.931Z,87.10
2017-09-22T03:05:31.259Z,87.10
2017-09-22T03:07:59.578Z,87.00
2017-09-22T03:10:27.906Z,86.90
2017-09-22T03:12:56.215Z,86.80
2017-09-22T03:15:24.543Z,86.90
2017-09-22T03:17:52.860Z,87.00
2017-09-22T03:20:22.238Z,87.00
2017-09-22T03:22:50.546Z,86.80
2017-09-22T03:25:18.855Z,86.90
2017-09-22T03:27:47.187Z,86.90
2017-09-22T03:30:15.496Z,86.80
2017-09-22T03:32:43.847Z,86.90
2017-09-22T03:35:12.159Z,87.00
2017-09-22T03:37:40.494Z,87.10
2017-09-22T03:40:08.812Z,87.20
2017-09-22T03:42:37.248Z,87.10
2017-09-22T03:45:05.563Z,87.20
2017-09-22T03:47:34.891Z,87.10
2017-09-22T03:50:03.232Z,87.20
2017-09-22T03:52:31.553Z,87.20
2017-09-22T03:54:59.892Z,87.30
2017-09-22T03:57:29.219Z,87.30
2017-09-22T03:59:57.552Z,87.30
2017-09-22T04:02:25.873Z,87.30
2017-09-22T04:04:54.224Z,87.30
2017-09-22T04:07:22.594Z,87.40
2017-09-22T04:09:50.912Z,87.50
2017-09-22T04:12:19.246Z,87.40
2017-09-22T04:14:47.556Z,87.40
2017-09-22T04:17:15.954Z,87.50
2017-09-22T04:19:44.263Z,87.40
2017-09-22T04:22:12.608Z,87.40
2017-09-22T04:24:40.924Z,87.40
2017-09-22T04:27:09.267Z,87.40
2017-09-22T04:29:37.603Z,87.50
2017-09-22T04:32:05.913Z,87.50
2017-09-22T04:34:34.238Z,87.40
2017-09-22T04:37:02.557Z,87.40
2017-09-22T04:39:30.896Z,87.40
2017-09-22T04:41:59.224Z,87.40
2017-09-22T04:44:27.559Z,87.40
2017-09-22T04:46:55.959Z,87.30
2017-09-22T04:49:24.341Z,87.40
2017-09-22T04:51:51.902Z,87.40
2017-09-22T04:54:20.218Z,87.40
2017-09-22T04:56:48.547Z,87.30
2017-09-22T04:59:16.863Z,87.30
2017-09-22T05:01:45.202Z,87.20
2017-09-22T05:04:13.511Z,87.20
2017-09-22T05:06:41.879Z,87.30
2017-09-22T05:09:10.188Z,87.40
2017-09-22T05:11:38.576Z,87.40
2017-09-22T05:14:06.887Z,87.40
2017-09-22T05:16:35.271Z,87.40
2017-09-22T05:19:03.603Z,87.50
2017-09-22T05:21:31.928Z,87.50
2017-09-22T05:24:00.255Z,87.40
2017-09-22T05:26:28.587Z,87.30
2017-09-22T05:28:56.919Z,87.30
2017-09-22T05:31:25.230Z,87.30
2017-09-22T05:33:53.568Z,87.40
2017-09-22T05:36:21.116Z,87.20
2017-09-22T05:38:49.651Z,87.20
2017-09-22T05:41:18.032Z,87.20
2017-09-22T05:43:46.342Z,87.10
2017-09-22T05:46:14.710Z,87.10
2017-09-22T05:48:43.042Z,87.00
2017-09-22T05:51:11.608Z,86.90
2017-09-22T05:53:39.983Z,86.80
2017-09-22T05:56:08.328Z,86.70
2017-09-22T05:58:36.640Z,86.50
2017-09-22T06:01:06.063Z,86.50
2017-09-22T06:03:34.399Z,86.50
2017-09-22T06:06:02.721Z,86.20
2017-09-22T06:08:31.070Z,86.10
2017-09-22T06:10:59.388Z,85.90
2017-09-22T06:13:27.801Z,86.00
2017-09-22T06:15:56.124Z,85.90
2017-09-22T06:18:24.564Z,85.90
2017-09-22T06:20:52.890Z,85.80
2017-09-22T06:23:21.316Z,86.50
2017-09-22T06:25:49.635Z,85.50
2017-09-22T06:28:18.094Z,85.30
2017-09-22T06:30:46.418Z,85.10
2017-09-22T06:33:14.745Z,85.10
2017-09-22T06:35:43.955Z,85.00
2017-09-22T06:38:12.280Z,85.50
2017-09-22T06:40:40.623Z,84.70
2017-09-22T06:43:08.935Z,85.30
2017-09-22T06:45:37.279Z,84.40
2017-09-22T06:48:05.590Z,84.20
2017-09-22T06:50:33.931Z,83.90
2017-09-22T06:53:02.259Z,83.90
2017-09-22T06:55:30.603Z,83.80
2017-09-22T06:57:58.940Z,83.50
2017-09-22T07:00:27.279Z,83.30
2017-09-22T07:02:55.642Z,82.90
2017-09-22T07:05:24.000Z,82.80
2017-09-22T07:07:52.311Z,82.60
2017-09-22T07:10:20.627Z,82.20
2017-09-22T07:12:48.978Z,82.10
2017-09-22T07:15:17.296Z,82.00
2017-09-22T07:17:45.648Z,81.70
2017-09-22T07:20:14.005Z,81.40
2017-09-22T07:22:42.339Z,81.30
2017-09-22T07:25:10.660Z,79.90
2017-09-22T07:27:39.007Z,79.80
2017-09-22T07:30:07.323Z,79.70
2017-09-22T07:32:35.684Z,79.40
2017-09-22T07:35:03.991Z,79.00
2017-09-22T07:37:32.302Z,78.50
2017-09-22T07:40:00.643Z,77.90
2017-09-22T07:42:28.965Z,77.00
2017-09-22T07:44:57.302Z,76.50
2017-09-22T07:47:25.620Z,76.30
2017-09-22T07:49:53.953Z,76.10
2017-09-22T07:52:22.267Z,75.60
2017-09-22T07:54:49.864Z,75.60
2017-09-22T07:57:18.197Z,75.10
2017-09-22T07:59:46.519Z,74.30
2017-09-22T08:02:14.864Z,73.40
2017-09-22T08:04:43.176Z,72.80
2017-09-22T08:07:11.519Z,73.20
2017-09-22T08:09:39.911Z,73.40
2017-09-22T08:12:08.245Z,72.70
2017-09-22T08:14:36.568Z,71.40
2017-09-22T08:17:04.919Z,71.10
2017-09-22T08:19:33.232Z,70.90
2017-09-22T08:22:01.548Z,71.10
2017-09-22T08:24:29.902Z,70.40
2017-09-22T08:26:58.221Z,70.00
2017-09-22T08:29:26.559Z,70.30
2017-09-22T08:31:54.883Z,70.00
2017-09-22T08:34:23.224Z,69.40
2017-09-22T08:36:50.785Z,69.30
2017-09-22T08:39:19.119Z,68.70
2017-09-22T08:41:47.548Z,68.40
2017-09-22T08:44:15.931Z,68.30
2017-09-22T08:46:44.272Z,67.90
2017-09-22T08:49:12.591Z,67.10
2017-09-22T08:51:40.951Z,66.80
2017-09-22T08:54:09.271Z,66.50
2017-09-22T08:56:37.616Z,66.20
2017-09-22T08:59:05.935Z,65.40
2017-09-22T09:01:34.267Z,64.60
2017-09-22T09:04:02.576Z,64.10
2017-09-22T09:06:30.931Z,63.80
2017-09-22T09:08:59.245Z,63.80
2017-09-22T09:11:27.561Z,63.60
2017-09-22T09:13:55.903Z,63.40
2017-09-22T09:16:24.216Z,63.40
2017-09-22T09:18:52.550Z,63.60
2017-09-22T09:21:20.860Z,63.60
2017-09-22T09:23:49.194Z,62.90
2017-09-22T09:26:17.503Z,62.60
2017-09-22T09:28:45.847Z,62.30
2017-09-22T09:31:14.159Z,61.40
2017-09-22T09:33:42.471Z,60.60
2017-09-22T09:36:10.799Z,59.30
2017-09-22T09:38:39.111Z,58.50
2017-09-22T09:41:06.671Z,58.50
2017-09-22T09:43:34.979Z,57.20
2017-09-22T09:46:03.308Z,56.50
2017-09-22T09:48:31.612Z,55.80
2017-09-22T09:50:59.943Z,55.80
2017-09-22T09:53:28.257Z,56.00
2017-09-22T09:55:55.908Z,56.00
2017-09-22T09:58:24.220Z,55.20
2017-09-22T10:00:52.546Z,55.00
2017-09-22T10:03:20.874Z,54.80
2017-09-22T10:05:49.191Z,53.20
2017-09-22T10:08:17.519Z,52.40
2017-09-22T10:10:45.842Z,52.20
2017-09-22T10:13:14.175Z,51.90
2017-09-22T10:15:42.503Z,50.90
2017-09-22T10:18:10.844Z,50.50
2017-09-22T10:20:39.161Z,50.20
2017-09-22T10:23:07.470Z,49.60
2017-09-22T10:25:35.804Z,48.90
2017-09-22T10:28:04.123Z,49.40
2017-09-22T10:30:32.451Z,50.10
2017-09-22T10:33:00.767Z,48.80
2017-09-22T10:35:29.095Z,49.20
2017-09-22T10:37:57.400Z,49.90
2017-09-22T10:40:25.744Z,50.30
2017-09-22T10:42:54.056Z,51.10
2017-09-22T10:45:22.363Z,52.20
2017-09-22T10:47:50.702Z,53.10
2017-09-22T10:50:19.012Z,52.60
2017-09-22T10:52:47.339Z,51.90
2017-09-22T10:55:15.659Z,52.20
2017-09-22T10:57:43.995Z,52.30
2017-09-22T11:00:12.307Z,51.40
2017-09-22T11:02:40.660Z,50.80
2017-09-22T11:05:08.972Z,50.10
2017-09-22T11:07:37.284Z,50.40
2017-09-22T11:10:04.855Z,50.40
2017-09-22T11:12:33.171Z,51.80
2017-09-22T11:15:01.503Z,51.90
2017-09-22T11:17:29.819Z,51.60
2017-09-22T11:19:58.151Z,51.20
2017-09-22T11:22:26.468Z,51.50
2017-09-22T11:24:54.797Z,52.20
2017-09-22T11:27:23.122Z,51.70
2017-09-22T11:29:51.439Z,51.10
2017-09-22T11:32:19.776Z,50.30
2017-09-22T11:34:48.083Z,50.00
2017-09-22T11:37:16.421Z,50.20
2017-09-22T11:39:44.732Z,50.10
2017-09-22T11:42:13.077Z,50.00
2017-09-22T11:44:41.391Z,50.30
2017-09-22T11:47:09.742Z,50.90
2017-09-22T11:49:38.051Z,51.00
2017-09-22T11:52:06.372Z,50.80
2017-09-22T11:54:34.704Z,50.30
2017-09-22T11:57:03.022Z,49.40
2017-09-22T11:59:31.352Z,49.20
2017-09-22T12:01:59.674Z,49.10
2017-09-22T12:04:28.011Z,49.20
2017-09-22T12:06:56.340Z,49.50
2017-09-22T12:09:24.679Z,49.90
2017-09-22T12:11:53.011Z,50.10
2017-09-22T12:14:21.359Z,49.90
2017-09-22T12:16:49.675Z,50.00
2017-09-22T12:19:17.983Z,50.00
2017-09-22T12:21:46.312Z,49.90
2017-09-22T12:24:14.618Z,49.30
2017-09-22T12:26:42.947Z,48.80
2017-09-22T12:29:11.254Z,48.40
2017-09-22T12:31:39.585Z,48.10
2017-09-22T12:34:07.132Z,48.10
2017-09-22T12:36:35.459Z,48.20
2017-09-22T12:39:03.773Z,48.60
2017-09-22T12:41:32.125Z,48.80
2017-09-22T12:44:00.426Z,48.70
2017-09-22T12:46:28.739Z,47.80
2017-09-22T12:48:57.074Z,47.80
2017-09-22T12:51:25.385Z,47.90
2017-09-22T12:53:52.955Z,47.90
2017-09-22T12:56:21.271Z,46.50
2017-09-22T12:58:49.596Z,45.90
2017-09-22T13:01:17.936Z,46.30
2017-09-22T13:03:46.278Z,46.70
2017-09-22T13:06:14.595Z,46.70
2017-09-22T13:08:42.945Z,46.60
2017-09-22T13:11:11.264Z,47.20
2017-09-22T13:13:38.808Z,47.20
2017-09-22T13:16:07.139Z,45.70
2017-09-22T13:18:35.449Z,45.30
2017-09-22T13:21:03.784Z,44.50
2017-09-22T13:23:32.120Z,45.60
2017-09-22T13:26:00.457Z,46.40
2017-09-22T13:28:28.767Z,46.50
2017-09-22T13:30:57.098Z,46.30
2017-09-22T13:33:25.411Z,46.10
2017-09-22T13:35:53.770Z,45.30
2017-09-22T13:38:22.084Z,45.40
2017-09-22T13:40:50.394Z,46.00
2017-09-22T13:43:18.732Z,46.20
2017-09-22T13:45:47.053Z,46.30
2017-09-22T13:48:15.384Z,45.90
2017-09-22T13:50:43.698Z,45.40
2017-09-22T13:53:12.043Z,45.90
2017-09-22T13:55:40.426Z,46.60
2017-09-22T13:58:08.752Z,46.10
2017-09-22T14:00:37.064Z,45.60
2017-09-22T14:03:05.415Z,45.30
2017-09-22T14:05:33.730Z,45.20
2017-09-22T14:08:02.038Z,45.30
2017-09-22T14:10:30.363Z,44.70
2017-09-22T14:12:58.680Z,44.70
2017-09-22T14:15:27.024Z,44.40
2017-09-22T14:17:55.340Z,43.30
2017-09-22T14:20:23.670Z,41.70
2017-09-22T14:22:51.988Z,40.60
2017-09-22T14:25:20.325Z,40.90
2017-09-22T14:27:48.636Z,41.50
2017-09-22T14:30:16.995Z,42.10
2017-09-22T14:32:45.324Z,42.50
2017-09-22T14:35:13.643Z,43.00
2017-09-22T14:37:41.974Z,43.00
2017-09-22T14:40:10.286Z,43.90
2017-09-22T14:42:38.613Z,44.60
2017-09-22T14:45:06.922Z,44.00
2017-09-22T14:47:35.271Z,44.90
2017-09-22T14:50:03.591Z,45.70
2017-09-22T14:52:31.900Z,46.30
2017-09-22T14:55:00.231Z,45.50
2017-09-22T14:57:28.547Z,45.50
2017-09-22T14:59:56.881Z,45.30
2017-09-22T15:02:25.195Z,46.10
2017-09-22T15:04:53.527Z,46.40
2017-09-22T15:07:21.843Z,46.80
2017-09-22T15:09:49.423Z,46.80
2017-09-22T15:12:16.963Z,46.90
2017-09-22T15:14:45.324Z,47.00
2017-09-22T15:17:13.632Z,48.00
2017-09-22T15:19:41.948Z,48.60
2017-09-22T15:22:10.281Z,49.50
2017-09-22T15:24:38.597Z,50.10
2017-09-22T15:27:06.936Z,50.30
2017-09-22T15:29:35.247Z,50.60
2017-09-22T15:32:03.579Z,50.90
2017-09-22T15:34:31.887Z,51.40
2017-09-22T15:37:00.212Z,52.30
2017-09-22T15:39:28.518Z,52.90
2017-09-22T15:41:56.875Z,53.00
2017-09-22T15:44:25.194Z,53.30
2017-09-22T15:46:53.516Z,54.30
2017-09-22T15:49:21.846Z,54.00
2017-09-22T15:51:50.155Z,54.30
2017-09-22T15:54:18.495Z,54.60
2017-09-22T15:56:46.813Z,54.60
2017-09-22T15:59:15.156Z,54.40
2017-09-22T16:01:43.473Z,54.60
2017-09-22T16:04:11.806Z,54.50
2017-09-22T16:06:39.355Z,54.50
2017-09-22T16:09:07.706Z,54.90
2017-09-22T16:11:36.016Z,55.10
2017-09-22T16:14:04.328Z,55.10
2017-09-22T16:16:32.663Z,55.10
2017-09-22T16:19:00.975Z,55.60
2017-09-22T16:21:29.309Z,56.20
2017-09-22T16:23:57.644Z,56.60
2017-09-22T16:26:25.990Z,57.10
2017-09-22T16:28:54.304Z,57.30
2017-09-22T16:31:22.639Z,57.40
2017-09-22T16:33:50.951Z,57.60
2017-09-22T16:36:19.301Z,57.90
2017-09-22T16:38:47.614Z,58.40
2017-09-22T16:41:15.923Z,58.30
2017-09-22T16:43:44.258Z,58.40
2017-09-22T16:46:12.575Z,58.60
2017-09-22T16:48:40.908Z,58.80
2017-09-22T16:51:09.229Z,59.00
2017-09-22T16:53:37.562Z,59.90
2017-09-22T16:56:05.888Z,59.90
2017-09-22T16:58:34.231Z,60.30
2017-09-22T17:01:02.543Z,60.40
2017-09-22T17:03:30.908Z,60.70
2017-09-22T17:05:59.226Z,61.30
2017-09-22T17:08:27.547Z,61.90
2017-09-22T17:10:55.890Z,62.40
2017-09-22T17:13:24.213Z,62.40
2017-09-22T17:15:52.560Z,63.00
2017-09-22T17:18:20.892Z,63.70
2017-09-22T17:20:49.235Z,64.50
2017-09-22T17:23:17.552Z,65.00
2017-09-22T17:25:45.890Z,65.80
2017-09-22T17:28:14.203Z,66.10
2017-09-22T17:30:42.564Z,66.60
2017-09-22T17:33:10.887Z,67.20
2017-09-22T17:35:39.207Z,68.00
2017-09-22T17:38:07.549Z,68.60
2017-09-22T17:40:35.868Z,69.20
2017-09-22T17:43:04.207Z,69.80
2017-09-22T17:45:32.524Z,70.30
2017-09-22T17:48:00.856Z,70.80
2017-09-22T17:50:29.170Z,70.90
2017-09-22T17:52:57.512Z,71.50
2017-09-22T17:55:25.832Z,71.90
2017-09-22T17:57:54.185Z,72.50
2017-09-22T18:00:22.505Z,72.70
2017-09-22T18:02:50.823Z,73.00
2017-09-22T18:05:19.190Z,73.10
2017-09-22T18:07:47.507Z,73.30
2017-09-22T18:10:15.844Z,73.50
2017-09-22T18:12:44.161Z,73.60
2017-09-22T18:15:12.502Z,73.90
2017-09-22T18:17:40.816Z,74.40
2017-09-22T18:20:09.153Z,75.00
2017-09-22T18:22:37.472Z,75.80
2017-09-22T18:25:05.830Z,76.10
2017-09-22T18:27:34.147Z,76.60
2017-09-22T18:30:02.463Z,76.90
2017-09-22T18:32:30.800Z,77.40
2017-09-22T18:34:59.122Z,78.00
2017-09-22T18:37:27.465Z,78.60
2017-09-22T18:39:55.788Z,79.10
2017-09-22T18:42:24.152Z,79.40
2017-09-22T18:44:52.476Z,79.90
2017-09-22T18:47:20.818Z,80.00
2017-09-22T18:49:49.139Z,80.50
2017-09-22T18:52:17.504Z,81.00
2017-09-22T18:54:45.827Z,81.50
2017-09-22T18:57:14.154Z,81.90
2017-09-22T18:59:41.726Z,81.90
2017-09-22T19:02:10.167Z,83.00
2017-09-22T19:04:38.511Z,83.40
2017-09-22T19:07:06.841Z,83.70
2017-09-22T19:09:35.182Z,83.80
2017-09-22T19:12:03.657Z,84.20
2017-09-22T19:14:32.033Z,84.40
2017-09-22T19:17:00.379Z,84.80
2017-09-22T19:19:28.932Z,85.20
2017-09-22T19:21:57.250Z,85.40
2017-09-22T19:24:25.572Z,85.70
2017-09-22T19:26:53.941Z,86.00
2017-09-22T19:29:22.337Z,86.40
2017-09-22T19:31:49.953Z,86.40
2017-09-22T19:34:18.329Z,86.90
2017-09-22T19:36:46.684Z,87.10
2017-09-22T19:39:15.046Z,87.20
2017-09-22T19:41:43.434Z,87.20
2017-09-22T19:44:11.249Z,87.20
2017-09-22T19:46:38.884Z,87.20
2017-09-22T19:49:07.204Z,87.10
2017-09-22T19:51:35.543Z,87.00
2017-09-22T19:54:03.923Z,87.20
2017-09-22T19:56:32.343Z,87.40
2017-09-22T19:59:00.707Z,87.10
2017-09-22T20:01:29.040Z,87.60
2017-09-22T20:03:57.390Z,87.50
2017-09-22T20:06:25.791Z,87.50
2017-09-22T20:08:54.140Z,87.40
2017-09-22T20:11:22.493Z,87.60
2017-09-22T20:13:50.055Z,87.60
2017-09-22T20:16:18.392Z,87.80
2017-09-22T20:18:46.745Z,87.80
2017-09-22T20:21:15.116Z,87.90
2017-09-22T20:23:43.435Z,87.90
2017-09-22T20:26:11.831Z,87.90
2017-09-22T20:28:40.218Z,87.90
2017-09-22T20:31:08.622Z,87.80
2017-09-22T20:33:36.964Z,87.80
2017-09-22T20:36:05.376Z,87.70
2017-09-22T20:38:33.694Z,87.80
2017-09-22T20:41:02.028Z,88.00
2017-09-22T20:43:30.411Z,88.20
2017-09-22T20:45:58.760Z,88.20
2017-09-22T20:48:27.147Z,88.30
2017-09-22T20:50:55.470Z,88.10
2017-09-22T20:53:23.808Z,88.30
2017-09-22T20:55:52.129Z,88.30
2017-09-22T20:58:20.475Z,88.30
2017-09-22T21:00:48.818Z,88.40
2017-09-22T21:03:17.208Z,88.80
2017-09-22T21:05:44.757Z,88.60
2017-09-22T21:08:13.089Z,89.30
2017-09-22T21:10:41.467Z,89.40
2017-09-22T21:13:09.847Z,89.20
2017-09-22T21:15:38.188Z,89.10
2017-09-22T21:18:06.513Z,89.10
2017-09-22T21:20:34.857Z,89.10
2017-09-22T21:23:03.175Z,89.30
2017-09-22T21:25:31.516Z,89.60
2017-09-22T21:27:59.843Z,89.70
2017-09-22T21:30:27.446Z,89.70
2017-09-22T21:32:55.768Z,89.50
2017-09-22T21:35:24.095Z,89.40
2017-09-22T21:37:52.440Z,89.30
2017-09-22T21:40:20.760Z,89.40
2017-09-22T21:42:48.340Z,89.40
2017-09-22T21:45:16.663Z,89.40
2017-09-22T21:47:45.007Z,89.20
2017-09-22T21:50:13.332Z,89.20
2017-09-22T21:52:40.905Z,89.20
2017-09-22T21:55:09.250Z,89.20
2017-09-22T21:57:37.607Z,89.10
2017-09-22T22:00:05.937Z,89.10
2017-09-22T22:02:40.140Z,89.00
2017-09-22T22:05:14.102Z,89.00
2017-09-22T22:07:42.472Z,89.10
2017-09-22T22:10:10.816Z,89.20
2017-09-22T22:12:39.154Z,89.20
2017-09-22T22:15:07.494Z,89.10
2017-09-22T22:17:35.815Z,89.30
2017-09-22T22:20:04.155Z,89.50
2017-09-22T22:22:32.479Z,89.60
2017-09-22T22:25:00.820Z,89.40
2017-09-22T22:27:29.130Z,89.30
2017-09-22T22:29:57.496Z,89.40
2017-09-22T22:32:25.821Z,89.30
2017-09-22T22:34:54.144Z,89.40
2017-09-22T22:37:28.380Z,89.50
2017-09-22T22:39:56.756Z,89.70
2017-09-22T22:42:25.100Z,89.50
2017-09-22T22:44:53.447Z,89.50
2017-09-22T22:47:21.792Z,89.50
2017-09-22T22:49:50.110Z,89.30
2017-09-22T22:52:18.448Z,90.00
2017-09-22T22:54:46.768Z,89.00
2017-09-22T22:57:15.132Z,88.90
2017-09-22T22:59:43.543Z,89.00
2017-09-22T23:02:11.859Z,89.30
2017-09-22T23:04:40.498Z,89.20
2017-09-22T23:07:08.820Z,89.20
2017-09-22T23:09:37.155Z,89.20
2017-09-22T23:12:05.481Z,89.40
2017-09-22T23:14:33.815Z,89.50
2017-09-22T23:17:02.133Z,89.40
2017-09-22T23:19:30.475Z,89.40
2017-09-22T23:21:58.803Z,89.40
2017-09-22T23:24:27.203Z,89.40
2017-09-22T23:26:55.529Z,89.60
2017-09-22T23:29:23.853Z,89.60
2017-09-22T23:31:52.337Z,90.10
2017-09-22T23:34:20.650Z,89.40
2017-09-22T23:36:48.994Z,89.40
2017-09-22T23:39:17.320Z,89.40
2017-09-22T23:41:45.659Z,89.40
2017-09-22T23:44:13.979Z,89.20
2017-09-22T23:46:42.322Z,89.30
2017-09-22T23:49:10.650Z,89.40
2017-09-22T23:51:38.211Z,89.30
2017-09-22T23:54:06.550Z,89.50
2017-09-22T23:56:34.869Z,89.60
2017-09-22T23:59:03.224Z,89.70
